Time;durP1;ratioP1;P1;durP2;ratioP2;P2;SDS_P1;SDS_P2;PMS_P1;PMS_P2;Temp;Humidity;BMP_temperature;BMP_pressure;BME280_temperature;BME280_humidity;BME280_pressure;Samples;Min_cycle;Max_cycle;Signal;HPM_P1;HPM_P2
2021/12/05 00:17:08;;;;;;;15.90;6.47;;;3.80;99.90;;;;;;5003999;28;20125;-55
2021/12/05 00:20:41;;;;;;;15.35;6.00;;;3.80;99.90;;;;;;5011006;28;20056;-55
2021/12/05 00:23:18;;;;;;;13.50;5.53;;;3.80;99.90;;;;;;5008705;28;20269;-55
2021/12/05 00:25:48;;;;;;;16.05;5.95;;;3.80;99.90;;;;;;5009710;28;20038;-56
2021/12/05 00:33:49;;;;;;;11.95;5.85;;;3.80;99.90;;;;;;5010620;28;20164;-56
2021/12/05 00:44:28;;;;;;;11.68;6.40;;;3.70;99.90;;;;;;5008654;28;20070;-55
2021/12/05 00:52:19;;;;;;;14.82;6.50;;;3.80;99.90;;;;;;5012833;28;20092;-56
2021/12/05 01:00:41;;;;;;;13.80;6.63;;;3.80;99.90;;;;;;5008759;28;20045;-56
2021/12/05 01:03:29;;;;;;;26.45;8.65;;;3.80;99.90;;;;;;5009105;28;20045;-56
2021/12/05 01:11:45;;;;;;;16.67;7.60;;;3.80;99.90;;;;;;5013869;28;20054;-57
2021/12/05 01:16:41;;;;;;;14.30;8.20;;;3.80;99.90;;;;;;4994879;28;20052;-56
2021/12/05 01:19:09;;;;;;;21.77;8.70;;;3.80;99.90;;;;;;5013084;28;20476;-56
2021/12/05 01:21:37;;;;;;;13.55;9.13;;;3.80;99.90;;;;;;5013591;28;20562;-56
2021/12/05 01:24:15;;;;;;;21.15;10.15;;;3.90;99.90;;;;;;4995652;28;20081;-56
2021/12/05 01:29:23;;;;;;;20.88;10.95;;;4.00;99.90;;;;;;5013260;28;20499;-56
2021/12/05 01:32:18;;;;;;;18.67;10.38;;;4.00;99.90;;;;;;5010869;28;20035;-55
2021/12/05 01:45:11;;;;;;;27.40;13.85;;;4.00;99.90;;;;;;5013539;28;20056;-56
2021/12/05 01:53:39;;;;;;;27.27;15.38;;;4.10;99.90;;;;;;4974114;28;20112;-56
2021/12/05 01:56:32;;;;;;;24.55;14.02;;;4.00;99.90;;;;;;4978739;28;20109;-56
2021/12/05 02:39:17;;;;;;;22.92;13.90;;;4.00;99.90;;;;;;5007042;28;20428;-56
2021/12/05 02:41:45;;;;;;;27.58;13.18;;;4.00;99.90;;;;;;5012362;28;20133;-55
2021/12/05 02:44:21;;;;;;;26.10;12.70;;;4.00;99.90;;;;;;5012667;28;20045;-56
2021/12/05 02:47:07;;;;;;;25.60;12.70;;;4.00;99.90;;;;;;5010467;28;20065;-56
2021/12/05 02:49:36;;;;;;;25.17;12.77;;;4.00;99.90;;;;;;5010831;28;20061;-57
2021/12/05 02:52:07;;;;;;;26.15;12.35;;;4.00;99.90;;;;;;5008431;28;20041;-56
2021/12/05 02:54:40;;;;;;;21.90;11.52;;;4.00;99.90;;;;;;5011326;28;20042;-56
2021/12/05 02:57:08;;;;;;;23.70;11.05;;;3.90;99.90;;;;;;5004054;28;20057;-54
2021/12/05 03:02:12;;;;;;;21.83;10.30;;;3.90;99.90;;;;;;5008130;28;20057;-56
2021/12/05 03:04:42;;;;;;;20.00;10.45;;;3.90;99.90;;;;;;5010860;28;20042;-56
2021/12/05 03:07:10;;;;;;;19.17;9.48;;;3.80;99.90;;;;;;5003754;28;20362;-56
2021/12/05 03:09:37;;;;;;;22.08;9.82;;;3.80;99.90;;;;;;5010358;28;20056;-55
2021/12/05 03:12:04;;;;;;;22.63;11.60;;;3.80;99.90;;;;;;5009348;28;20042;-56
2021/12/05 03:14:30;;;;;;;19.15;9.07;;;3.70;99.90;;;;;;5011048;28;20038;-56
2021/12/05 03:16:56;;;;;;;20.70;8.52;;;3.70;99.90;;;;;;5011204;28;20392;-56
2021/12/05 03:19:22;;;;;;;17.63;8.02;;;3.70;99.90;;;;;;5010237;28;20081;-56
2021/12/05 03:21:50;;;;;;;15.57;8.27;;;3.70;99.90;;;;;;5010822;28;20127;-56
2021/12/05 03:24:18;;;;;;;22.05;8.05;;;3.70;99.90;;;;;;5008959;28;20041;-56
2021/12/05 03:26:47;;;;;;;22.92;8.00;;;3.70;99.90;;;;;;5011705;28;20076;-55
2021/12/05 03:29:15;;;;;;;16.98;7.18;;;3.70;99.90;;;;;;5009219;28;20056;-57
2021/12/05 03:31:41;;;;;;;15.30;7.68;;;3.70;99.90;;;;;;5009706;28;20116;-55
2021/12/05 03:34:10;;;;;;;22.35;7.85;;;3.70;99.90;;;;;;5010383;28;20042;-55
2021/12/05 03:36:37;;;;;;;16.17;7.20;;;3.60;99.90;;;;;;5006428;28;20042;-57
2021/12/05 03:39:05;;;;;;;21.67;7.28;;;3.60;99.90;;;;;;5011372;28;20426;-55
2021/12/05 03:41:32;;;;;;;15.00;6.95;;;3.60;99.90;;;;;;5011060;28;20045;-55
2021/12/05 03:43:58;;;;;;;20.70;7.00;;;3.60;99.90;;;;;;5011629;28;20100;-55
2021/12/05 03:46:25;;;;;;;18.25;6.43;;;3.50;99.90;;;;;;5011282;28;20082;-54
2021/12/05 03:48:56;;;;;;;15.57;6.47;;;3.50;99.90;;;;;;5011180;28;20121;-53
2021/12/05 03:51:23;;;;;;;20.75;6.82;;;3.50;99.90;;;;;;4993086;28;20053;-56
2021/12/05 03:53:50;;;;;;;18.17;6.90;;;3.40;99.90;;;;;;5011459;28;20034;-56
2021/12/05 03:56:16;;;;;;;22.40;7.03;;;3.40;99.90;;;;;;5011367;28;20072;-55
2021/12/05 03:58:42;;;;;;;18.92;6.60;;;3.30;99.90;;;;;;5010906;28;20042;-55
2021/12/05 04:01:11;;;;;;;16.58;6.53;;;3.30;99.90;;;;;;5011068;28;20056;-55
2021/12/05 04:03:37;;;;;;;16.17;6.15;;;3.20;99.90;;;;;;5009334;28;20042;-55
2021/12/05 04:06:06;;;;;;;17.05;6.50;;;3.20;99.90;;;;;;5007381;28;20041;-56
2021/12/05 04:08:32;;;;;;;20.73;6.38;;;3.10;99.90;;;;;;5010869;28;20049;-55
2021/12/05 04:11:03;;;;;;;17.77;6.50;;;3.10;99.90;;;;;;5010460;28;20038;-56
2021/12/05 04:13:29;;;;;;;19.70;6.95;;;3.10;99.90;;;;;;5009205;28;20048;-55
2021/12/05 04:16:00;;;;;;;19.55;6.50;;;3.10;99.90;;;;;;5009800;28;20042;-55
2021/12/05 04:18:26;;;;;;;20.42;6.65;;;3.00;99.90;;;;;;5006515;28;20042;-55
2021/12/05 04:20:55;;;;;;;17.92;6.70;;;3.00;99.90;;;;;;5009798;28;20073;-56
2021/12/05 04:23:21;;;;;;;20.17;7.18;;;3.00;99.90;;;;;;5009692;28;20052;-55
2021/12/05 04:25:50;;;;;;;18.85;6.82;;;2.90;99.90;;;;;;5010725;28;20054;-56
2021/12/05 04:28:17;;;;;;;15.30;6.30;;;2.90;99.90;;;;;;5008010;28;20420;-56
2021/12/05 04:30:42;;;;;;;20.63;7.18;;;2.80;99.90;;;;;;5008094;28;20392;-56
2021/12/05 04:33:08;;;;;;;18.10;6.82;;;2.80;99.90;;;;;;5007339;28;20037;-56
2021/12/05 04:35:34;;;;;;;18.20;6.38;;;2.70;99.90;;;;;;5007275;28;20120;-56
2021/12/05 04:37:59;;;;;;;11.68;6.35;;;2.70;99.90;;;;;;5003868;28;20423;-56
2021/12/05 04:40:25;;;;;;;17.13;6.32;;;2.70;99.90;;;;;;5008356;28;20042;-55
2021/12/05 04:42:51;;;;;;;17.38;6.85;;;2.70;99.90;;;;;;5009455;28;20105;-56
2021/12/05 04:45:25;;;;;;;18.55;7.10;;;2.70;99.90;;;;;;5009420;28;20073;-54
2021/12/05 04:47:52;;;;;;;22.33;6.97;;;2.70;99.90;;;;;;5009344;28;20096;-56
2021/12/05 04:50:18;;;;;;;18.38;6.78;;;2.70;99.90;;;;;;5010530;28;20136;-55
2021/12/05 04:52:44;;;;;;;20.00;7.22;;;2.70;99.90;;;;;;5009940;28;20053;-55
2021/12/05 04:55:12;;;;;;;19.55;6.93;;;2.60;99.90;;;;;;5010591;28;20100;-56
2021/12/05 04:57:39;;;;;;;19.77;6.60;;;2.60;99.90;;;;;;5008065;28;20069;-56
2021/12/05 05:00:11;;;;;;;19.77;7.25;;;2.60;99.90;;;;;;5007482;28;20049;-55
2021/12/05 05:02:36;;;;;;;16.70;6.78;;;2.60;99.90;;;;;;5010160;28;20480;-55
2021/12/05 05:05:02;;;;;;;17.20;6.70;;;2.60;99.90;;;;;;5008584;28;20045;-56
2021/12/05 05:07:28;;;;;;;24.60;7.22;;;2.60;99.90;;;;;;5009797;28;20057;-55
2021/12/05 05:09:58;;;;;;;22.25;7.10;;;2.60;99.90;;;;;;5010010;28;20042;-56
2021/12/05 05:12:23;;;;;;;22.30;6.75;;;2.70;99.90;;;;;;5007592;28;20048;-56
2021/12/05 05:14:50;;;;;;;18.05;6.88;;;2.70;99.90;;;;;;5005279;28;20124;-56
2021/12/05 05:17:16;;;;;;;17.23;6.37;;;2.70;99.90;;;;;;5008841;28;20034;-56
2021/12/05 05:19:45;;;;;;;25.42;6.50;;;2.70;99.90;;;;;;5009531;28;20089;-56
2021/12/05 05:30:33;;;;;;;26.50;6.97;;;2.80;99.90;;;;;;5006460;28;20054;-56
2021/12/05 05:46:37;;;;;;;19.05;6.28;;;2.90;99.90;;;;;;5009770;28;20054;-55
2021/12/05 05:49:20;;;;;;;16.05;6.50;;;2.90;99.90;;;;;;5013024;28;20514;-56
2021/12/05 05:51:46;;;;;;;19.90;6.47;;;3.00;99.90;;;;;;5013681;28;20046;-56
2021/12/05 05:54:12;;;;;;;18.67;6.78;;;3.00;99.90;;;;;;5013641;28;20038;-55
2021/12/05 05:56:41;;;;;;;20.15;7.13;;;3.00;99.90;;;;;;5013464;28;20049;-57
2021/12/05 05:59:24;;;;;;;23.83;7.75;;;3.00;99.90;;;;;;5013375;28;20046;-57
2021/12/05 06:04:16;;;;;;;21.88;7.82;;;3.10;99.90;;;;;;5010726;28;20045;-57
2021/12/05 06:06:42;;;;;;;24.02;8.48;;;3.10;99.90;;;;;;5010257;28;20088;-57
2021/12/05 06:09:08;;;;;;;22.20;7.97;;;3.10;99.90;;;;;;5012940;28;20128;-57
2021/12/05 06:11:34;;;;;;;21.70;8.93;;;3.10;99.90;;;;;;5012884;28;20437;-57
2021/12/05 06:14:01;;;;;;;18.88;8.57;;;3.20;99.90;;;;;;5013432;28;20100;-58
2021/12/05 06:16:27;;;;;;;17.10;8.50;;;3.20;99.90;;;;;;5006971;28;20125;-55
2021/12/05 06:18:52;;;;;;;22.08;8.98;;;3.30;99.90;;;;;;5013097;28;20200;-57
2021/12/05 06:21:18;;;;;;;22.80;9.57;;;3.30;99.90;;;;;;5011033;28;20049;-56
2021/12/05 06:23:45;;;;;;;19.02;8.48;;;3.40;99.90;;;;;;5013477;28;20476;-56
2021/12/05 06:26:15;;;;;;;22.30;9.50;;;3.40;99.90;;;;;;5011728;28;20089;-57
2021/12/05 06:28:43;;;;;;;23.17;9.57;;;3.50;99.90;;;;;;5008427;28;20037;-57
2021/12/05 06:48:12;;;;;;;16.48;9.48;;;3.60;99.90;;;;;;4946409;29;20058;-57
2021/12/05 06:50:37;;;;;;;20.17;10.02;;;3.60;99.90;;;;;;4939978;29;20059;-55
2021/12/05 06:53:06;;;;;;;20.67;9.90;;;3.60;99.90;;;;;;4944791;29;20051;-57
2021/12/05 06:55:32;;;;;;;18.08;9.90;;;3.70;99.90;;;;;;4940385;29;20148;-58
2021/12/05 06:57:57;;;;;;;30.15;11.93;;;3.70;99.90;;;;;;4945550;29;20048;-57
2021/12/05 07:00:27;;;;;;;23.65;10.68;;;3.70;99.90;;;;;;4934679;29;20043;-57
2021/12/05 07:02:53;;;;;;;24.88;10.75;;;3.70;99.90;;;;;;4944400;29;20153;-57
2021/12/05 07:05:41;;;;;;;21.38;10.48;;;3.70;99.90;;;;;;4946875;28;20231;-57
2021/12/05 07:08:08;;;;;;;15.25;10.00;;;3.70;99.90;;;;;;4953182;28;20043;-57
2021/12/05 07:10:42;;;;;;;19.80;11.30;;;3.80;99.90;;;;;;4960737;28;20078;-57
2021/12/05 07:15:45;;;;;;;22.00;10.88;;;3.80;99.90;;;;;;4955081;28;20052;-57
2021/12/05 07:23:49;;;;;;;18.33;9.70;;;3.80;99.90;;;;;;5009768;28;20088;-57
2021/12/05 07:26:28;;;;;;;18.30;9.35;;;3.90;99.90;;;;;;5010668;28;20125;-58
2021/12/05 07:42:41;;;;;;;17.15;8.55;;;3.90;99.90;;;;;;5010004;28;20480;-57
2021/12/05 07:45:14;;;;;;;15.80;9.40;;;3.90;99.90;;;;;;5011985;28;20057;-57
2021/12/05 07:47:44;;;;;;;16.20;9.60;;;4.00;99.90;;;;;;5011027;28;20053;-57
2021/12/05 07:50:11;;;;;;;18.50;8.85;;;4.00;99.90;;;;;;5012378;28;20038;-58
2021/12/05 07:52:50;;;;;;;16.27;8.50;;;4.00;99.90;;;;;;5011026;28;20049;-57
2021/12/05 07:55:24;;;;;;;16.65;8.73;;;4.00;99.90;;;;;;5006587;28;20049;-57
2021/12/05 08:00:37;;;;;;;16.02;8.80;;;4.00;99.90;;;;;;5011560;28;20050;-57
2021/12/05 08:16:57;;;;;;;17.48;7.97;;;4.10;99.90;;;;;;4999873;28;20165;-57
2021/12/05 08:19:23;;;;;;;17.83;8.13;;;4.10;99.90;;;;;;5010086;28;20050;-57
2021/12/05 08:21:55;;;;;;;14.38;8.25;;;4.20;99.90;;;;;;5008846;28;20060;-56
2021/12/05 08:24:21;;;;;;;17.63;7.95;;;4.20;99.90;;;;;;4991015;28;20100;-57
2021/12/05 08:26:49;;;;;;;15.02;7.43;;;4.20;99.90;;;;;;5009846;28;20099;-58
2021/12/05 08:29:19;;;;;;;18.00;8.18;;;4.20;99.90;;;;;;5006666;28;20045;-57
2021/12/05 08:37:08;;;;;;;13.70;6.90;;;4.20;99.90;;;;;;5010266;28;20372;-57
2021/12/05 08:42:39;;;;;;;13.65;6.72;;;4.20;99.90;;;;;;4988705;28;20730;-56
2021/12/05 08:45:43;;;;;;;12.93;7.00;;;4.30;99.90;;;;;;5009235;28;20052;-57
2021/12/05 09:26:11;;;;;;;14.05;5.97;;;4.40;99.90;;;;;;5012580;28;20046;-57
2021/12/05 10:07:00;;;;;;;11.43;6.03;;;4.50;99.90;;;;;;4992486;28;20062;-57
2021/12/05 10:12:23;;;;;;;10.65;5.90;;;4.50;99.90;;;;;;4993433;28;20054;-57
2021/12/05 10:15:01;;;;;;;11.57;6.05;;;4.50;99.90;;;;;;4994126;28;20130;-57
2021/12/05 10:17:49;;;;;;;10.75;6.22;;;4.50;99.90;;;;;;4993619;28;20050;-57
2021/12/05 10:26:42;;;;;;;15.73;6.30;;;4.60;99.90;;;;;;4931128;29;20367;-56
2021/12/05 10:37:49;;;;;;;9.52;5.63;;;4.80;99.90;;;;;;4947576;29;20039;-57
2021/12/05 10:40:22;;;;;;;9.90;5.78;;;4.80;99.90;;;;;;4945343;29;20090;-56
2021/12/05 10:42:53;;;;;;;10.57;5.75;;;4.90;99.90;;;;;;4936898;29;20132;-57
2021/12/05 10:45:19;;;;;;;8.02;5.75;;;4.90;99.90;;;;;;4929802;29;20044;-57
2021/12/05 10:47:49;;;;;;;8.60;6.05;;;4.90;99.90;;;;;;4932421;29;20399;-55
2021/12/05 10:50:29;;;;;;;13.60;6.05;;;;;;;;;;4940963;29;20102;-57
2021/12/05 10:53:36;;;;;;;11.13;5.65;;;5.00;99.90;;;;;;4926805;29;20079;-56
2021/12/05 10:56:16;;;;;;;10.93;5.53;;;5.00;99.90;;;;;;4925327;29;20135;-56
2021/12/05 10:58:44;;;;;;;8.57;6.15;;;5.00;99.90;;;;;;4931540;28;20505;-55
2021/12/05 11:01:12;;;;;;;;;;;5.10;99.90;;;;;;4990006;28;20161;-56
2021/12/05 11:03:38;;;;;;;10.57;5.78;;;5.10;99.90;;;;;;4989811;28;19928;-57
2021/12/05 11:06:18;;;;;;;9.43;5.80;;;;;;;;;;4992267;28;20101;-56
2021/12/05 11:08:44;;;;;;;9.13;6.03;;;5.20;99.90;;;;;;4986921;28;20046;-56
2021/12/05 11:11:15;;;;;;;10.35;5.85;;;5.20;99.90;;;;;;4993044;28;20050;-56
2021/12/05 11:13:43;;;;;;;10.45;5.13;;;5.20;99.90;;;;;;4985958;28;20084;-56
2021/12/05 11:16:38;;;;;;;10.05;4.95;;;5.20;99.90;;;;;;4993720;28;20065;-56
2021/12/05 11:19:09;;;;;;;6.15;4.65;;;;;;;;;;4989591;28;20049;-56
2021/12/05 11:21:35;;;;;;;7.80;4.43;;;5.40;99.90;;;;;;4993418;28;20540;-57
2021/12/05 11:24:04;;;;;;;8.02;4.78;;;5.40;99.90;;;;;;4992880;28;20499;-56
2021/12/05 11:26:31;;;;;;;6.85;4.07;;;5.40;99.90;;;;;;4993000;28;20489;-56
2021/12/05 11:28:57;;;;;;;8.07;4.15;;;5.40;99.90;;;;;;4989848;28;20523;-55
2021/12/05 11:31:28;;;;;;;9.35;4.55;;;5.50;99.90;;;;;;4989005;28;20045;-58
2021/12/05 11:33:55;;;;;;;5.20;3.95;;;5.50;99.90;;;;;;4988837;28;20044;-55
2021/12/05 11:36:32;;;;;;;9.27;5.07;;;5.50;99.90;;;;;;4991813;28;20058;-54
2021/12/05 11:38:58;;;;;;;5.03;4.03;;;5.50;99.90;;;;;;4986681;28;20054;-56
2021/12/05 11:41:24;;;;;;;6.28;4.53;;;5.50;99.90;;;;;;4990794;28;20105;-58
2021/12/05 11:43:53;;;;;;;6.35;4.32;;;5.60;99.90;;;;;;4989282;28;20525;-57
2021/12/05 11:46:32;;;;;;;9.57;4.40;;;5.60;99.90;;;;;;4999974;28;20100;-57
2021/12/05 11:49:02;;;;;;;7.47;4.10;;;5.60;99.90;;;;;;5012252;28;20108;-58
2021/12/05 11:51:31;;;;;;;6.70;3.88;;;5.60;99.90;;;;;;4993363;28;20046;-58
2021/12/05 11:54:01;;;;;;;4.88;3.55;;;5.60;99.90;;;;;;5000963;28;20042;-57
2021/12/05 11:56:29;;;;;;;6.35;3.83;;;5.60;99.90;;;;;;5013651;28;20092;-56
2021/12/05 11:59:25;;;;;;;5.45;3.53;;;5.50;99.90;;;;;;5012164;28;20515;-57
2021/12/05 12:01:57;;;;;;;6.50;3.80;;;5.50;99.90;;;;;;5007038;28;20100;-58
2021/12/05 12:04:36;;;;;;;4.40;3.33;;;5.50;99.90;;;;;;5010575;28;20447;-56
2021/12/05 12:07:27;;;;;;;5.15;3.53;;;5.50;99.90;;;;;;5012412;28;20231;-56
2021/12/05 12:10:03;;;;;;;3.97;3.30;;;5.50;99.90;;;;;;5005348;28;20053;-56
2021/12/05 12:12:28;;;;;;;6.57;3.67;;;5.50;99.90;;;;;;5006041;28;20062;-57
2021/12/05 12:14:54;;;;;;;4.10;3.50;;;5.50;99.90;;;;;;5012481;28;20520;-56
2021/12/05 12:17:21;;;;;;;5.68;3.35;;;5.60;99.90;;;;;;5011016;28;20041;-57
2021/12/05 12:19:50;;;;;;;5.82;3.70;;;5.60;99.90;;;;;;5012198;28;20076;-57
2021/12/05 12:22:19;;;;;;;4.72;3.38;;;5.60;99.90;;;;;;5011642;28;20518;-57
2021/12/05 12:24:49;;;;;;;4.68;3.17;;;5.50;99.90;;;;;;5012194;28;20045;-57
2021/12/05 12:27:16;;;;;;;6.10;3.25;;;5.60;99.90;;;;;;5008818;28;20369;-57
2021/12/05 12:29:42;;;;;;;5.03;3.78;;;5.60;99.90;;;;;;5011977;28;20161;-57
2021/12/05 12:32:15;;;;;;;4.20;3.25;;;5.60;99.90;;;;;;5007606;28;20141;-57
2021/12/05 12:34:41;;;;;;;5.18;3.15;;;5.60;99.90;;;;;;5010370;28;20088;-57
2021/12/05 12:37:07;;;;;;;5.63;3.63;;;5.60;99.90;;;;;;5011767;28;20149;-57
2021/12/05 12:39:35;;;;;;;4.72;3.92;;;5.60;99.90;;;;;;5011288;28;20112;-55
2021/12/05 12:42:23;;;;;;;4.20;3.55;;;5.60;99.90;;;;;;5008256;28;20407;-56
2021/12/05 12:45:10;;;;;;;6.60;3.35;;;5.60;99.90;;;;;;5001893;28;20058;-57
2021/12/05 12:47:52;;;;;;;4.72;3.75;;;5.60;99.90;;;;;;5005046;28;20068;-57
2021/12/05 12:50:54;;;;;;;4.15;3.47;;;5.60;99.90;;;;;;5011045;28;20053;-57
2021/12/05 12:53:27;;;;;;;7.07;4.00;;;5.60;99.90;;;;;;4968352;28;20066;-57
2021/12/05 12:56:08;;;;;;;6.82;4.50;;;5.60;99.90;;;;;;5031436;28;20522;-57
2021/12/05 12:58:50;;;;;;;6.97;4.30;;;5.60;99.90;;;;;;5019358;28;20034;-56
2021/12/05 13:02:14;;;;;;;5.50;4.32;;;5.60;99.90;;;;;;5012160;28;20053;-57
2021/12/05 13:05:22;;;;;;;4.43;3.60;;;5.60;99.90;;;;;;5009684;28;20054;-56
2021/12/05 13:10:09;;;;;;;6.38;4.32;;;5.60;99.90;;;;;;5011796;28;20054;-56
2021/12/05 13:12:49;;;;;;;4.35;3.85;;;5.60;99.90;;;;;;5011588;28;20034;-57
2021/12/05 13:15:34;;;;;;;5.55;4.22;;;5.50;99.90;;;;;;5009861;28;20046;-56
2021/12/05 13:18:08;;;;;;;6.82;4.90;;;5.50;99.90;;;;;;4998859;28;20505;-56
2021/12/05 13:20:43;;;;;;;6.75;5.45;;;5.50;99.90;;;;;;5008677;28;20049;-57
2021/12/05 13:23:13;;;;;;;7.85;5.28;;;5.50;99.90;;;;;;5008900;28;20042;-57
2021/12/05 13:26:01;;;;;;;6.18;5.45;;;5.60;99.90;;;;;;5011366;28;20492;-57
2021/12/05 13:28:32;;;;;;;6.22;5.30;;;5.60;99.90;;;;;;4995318;28;20096;-56
2021/12/05 13:31:00;;;;;;;5.78;5.28;;;5.50;99.90;;;;;;5011201;28;20049;-56
2021/12/05 13:33:28;;;;;;;;;;;5.50;99.90;;;;;;5010466;28;20381;-57
2021/12/05 13:35:58;;;;;;;6.60;4.70;;;5.50;99.90;;;;;;5011513;28;19994;-57
2021/12/05 13:38:31;;;;;;;5.53;4.80;;;5.50;99.90;;;;;;5009830;28;20050;-56
2021/12/05 13:41:19;;;;;;;5.85;5.22;;;5.50;99.90;;;;;;5011597;28;20108;-56
2021/12/05 13:43:57;;;;;;;7.00;5.00;;;5.60;99.90;;;;;;5011697;28;20046;-57
2021/12/05 13:46:36;;;;;;;;;;;5.60;99.90;;;;;;5011782;28;20050;-57
2021/12/05 13:49:36;;;;;;;6.43;4.80;;;5.60;99.90;;;;;;5009439;28;19921;-56
2021/12/05 13:52:28;;;;;;;6.13;5.28;;;5.60;99.90;;;;;;5012124;28;20042;-56
2021/12/05 13:55:13;;;;;;;5.75;5.20;;;5.60;99.90;;;;;;5014971;28;20054;-57
2021/12/05 13:58:18;;;;;;;6.10;5.45;;;5.50;99.90;;;;;;5014518;28;20458;-56
2021/12/05 14:00:51;;;;;;;6.40;5.50;;;5.50;99.90;;;;;;5015204;28;20169;-56
2021/12/05 14:03:51;;;;;;;6.60;6.00;;;5.50;99.90;;;;;;5014619;28;20046;-56
2021/12/05 14:06:42;;;;;;;6.53;5.80;;;5.50;99.90;;;;;;5014673;28;20052;-56
2021/12/05 14:09:38;;;;;;;6.15;5.57;;;5.50;99.90;;;;;;5012788;28;20064;-56
2021/12/05 14:12:27;;;;;;;6.75;5.22;;;5.50;99.90;;;;;;5014719;28;20065;-56
2021/12/05 14:14:59;;;;;;;7.32;4.97;;;5.50;99.90;;;;;;5012882;28;20133;-56
2021/12/05 14:17:26;;;;;;;7.00;5.18;;;5.50;99.90;;;;;;4996736;28;20134;-57
2021/12/05 14:19:57;;;;;;;6.57;5.40;;;5.50;99.90;;;;;;4994781;28;20500;-57
2021/12/05 14:22:25;;;;;;;7.05;5.78;;;5.50;99.90;;;;;;4995091;28;20046;-56
2021/12/05 14:24:54;;;;;;;8.93;5.70;;;5.50;99.90;;;;;;5011818;28;20048;-56
2021/12/05 14:27:23;;;;;;;7.32;5.45;;;5.50;99.90;;;;;;5014332;28;20057;-57
2021/12/05 14:29:51;;;;;;;5.72;4.55;;;5.50;99.90;;;;;;5014596;28;20045;-56
2021/12/05 14:32:22;;;;;;;5.30;4.80;;;5.50;99.90;;;;;;5014243;28;20132;-57
2021/12/05 14:34:50;;;;;;;6.78;5.13;;;5.40;99.90;;;;;;5014054;28;20057;-55
2021/12/05 14:37:19;;;;;;;5.40;4.85;;;5.40;99.90;;;;;;5013813;28;20046;-56
2021/12/05 14:39:55;;;;;;;5.30;4.80;;;5.40;99.90;;;;;;5010743;28;20149;-56
2021/12/05 14:42:24;;;;;;;6.72;5.03;;;5.40;99.90;;;;;;5013992;28;20054;-57
2021/12/05 14:44:53;;;;;;;6.30;5.20;;;5.40;99.90;;;;;;5004558;28;20054;-57
2021/12/05 14:47:22;;;;;;;7.63;4.82;;;5.30;99.90;;;;;;5013570;28;20076;-57
2021/12/05 14:49:49;;;;;;;;;;;5.30;99.90;;;;;;5013602;28;20049;-56
2021/12/05 14:52:24;;;;;;;6.63;4.72;;;5.30;99.90;;;;;;5012749;28;19927;-55
2021/12/05 14:54:51;;;;;;;8.57;5.05;;;5.30;99.90;;;;;;5012765;28;20042;-57
2021/12/05 14:57:30;;;;;;;7.15;5.07;;;5.20;99.90;;;;;;5012530;28;20046;-57
2021/12/05 15:00:11;;;;;;;8.15;5.55;;;5.20;99.90;;;;;;5009534;28;20089;-57
2021/12/05 15:02:37;;;;;;;7.60;5.45;;;5.20;99.90;;;;;;5011108;28;20049;-57
2021/12/05 15:05:03;;;;;;;6.90;6.07;;;5.20;99.90;;;;;;5010317;28;20034;-57
2021/12/05 15:07:29;;;;;;;8.93;5.75;;;5.20;99.90;;;;;;5013142;28;20046;-56
2021/12/05 15:09:57;;;;;;;6.43;5.70;;;5.10;99.90;;;;;;5022136;28;20038;-57
2021/12/05 15:12:31;;;;;;;7.95;6.15;;;5.10;99.90;;;;;;5013230;28;20050;-57
2021/12/05 15:15:01;;;;;;;8.80;6.25;;;5.10;99.90;;;;;;5013189;28;20100;-57
2021/12/05 15:17:29;;;;;;;9.00;5.88;;;5.10;99.90;;;;;;5013219;28;20042;-57
2021/12/05 15:20:03;;;;;;;7.82;5.45;;;5.00;99.90;;;;;;5012519;28;20050;-58
2021/12/05 15:22:29;;;;;;;6.28;5.75;;;5.00;99.90;;;;;;5011164;28;20050;-57
2021/12/05 15:25:01;;;;;;;6.55;5.85;;;5.00;99.90;;;;;;5012810;28;20392;-56
2021/12/05 15:27:30;;;;;;;6.13;5.45;;;5.00;99.90;;;;;;5013122;28;20046;-57
2021/12/05 15:30:01;;;;;;;6.20;5.50;;;5.00;99.90;;;;;;5012459;28;20500;-57
2021/12/05 15:32:29;;;;;;;6.68;5.78;;;5.00;99.90;;;;;;5011058;28;20057;-57
2021/12/05 15:34:58;;;;;;;7.97;5.60;;;5.00;99.90;;;;;;5011566;28;20460;-58
2021/12/05 15:37:24;;;;;;;7.43;5.68;;;4.90;99.90;;;;;;5009488;28;20541;-58
2021/12/05 15:39:53;;;;;;;9.18;6.38;;;4.90;99.90;;;;;;5012634;28;20400;-57
2021/12/05 15:42:27;;;;;;;7.13;6.18;;;4.90;99.90;;;;;;4994411;28;20504;-57
2021/12/05 15:44:56;;;;;;;8.15;6.95;;;4.90;99.90;;;;;;5013051;28;20050;-57
2021/12/05 15:47:32;;;;;;;7.30;6.50;;;4.90;99.90;;;;;;5012428;28;20499;-57
2021/12/05 15:50:00;;;;;;;12.20;10.13;;;4.90;99.90;;;;;;5012640;28;20436;-57
2021/12/05 15:52:31;;;;;;;9.68;7.97;;;4.90;99.90;;;;;;5011045;28;20081;-56
2021/12/05 15:54:56;;;;;;;10.43;8.30;;;4.90;99.90;;;;;;5011549;28;20029;-57
2021/12/05 15:57:36;;;;;;;17.08;13.45;;;4.90;99.90;;;;;;5010784;28;20042;-57
2021/12/05 16:00:26;;;;;;;32.00;22.58;;;4.80;99.90;;;;;;5011404;28;20045;-57
2021/12/05 16:02:57;;;;;;;10.70;9.70;;;4.80;99.90;;;;;;5000330;28;20153;-55
2021/12/05 16:05:24;;;;;;;10.82;8.65;;;4.80;99.90;;;;;;4998328;28;20373;-57
2021/12/05 16:07:50;;;;;;;8.25;7.47;;;4.80;99.90;;;;;;5010832;28;20060;-57
2021/12/05 16:10:22;;;;;;;8.63;7.70;;;4.80;99.90;;;;;;5011839;28;20084;-57
2021/12/05 16:12:51;;;;;;;9.55;7.97;;;4.80;99.90;;;;;;5011364;28;20480;-57
2021/12/05 16:15:19;;;;;;;10.63;9.52;;;4.80;99.90;;;;;;5011025;28;20124;-57
2021/12/05 16:18:00;;;;;;;;;;;4.80;99.90;;;;;;4996506;28;20048;-56
2021/12/05 16:20:35;;;;;;;11.45;10.15;;;4.80;99.90;;;;;;5003881;28;20032;-56
2021/12/05 16:23:22;;;;;;;13.27;10.95;;;4.70;99.90;;;;;;5006294;28;20065;-57
2021/12/05 16:26:11;;;;;;;13.53;11.27;;;4.70;99.90;;;;;;5006936;28;20119;-56
2021/12/05 16:28:49;;;;;;;14.63;11.50;;;4.70;99.90;;;;;;5009273;28;20084;-56
2021/12/05 16:31:24;;;;;;;13.43;11.23;;;4.70;99.90;;;;;;5011245;28;20042;-56
2021/12/05 16:34:00;;;;;;;12.27;10.98;;;4.70;99.90;;;;;;5011425;28;20049;-57
2021/12/05 16:36:34;;;;;;;13.45;12.07;;;4.70;99.90;;;;;;5007657;28;20057;-56
2021/12/05 16:39:11;;;;;;;14.70;13.30;;;4.70;99.90;;;;;;5008964;28;20052;-56
2021/12/05 16:41:37;;;;;;;17.95;14.15;;;4.70;99.90;;;;;;5008915;28;20037;-57
2021/12/05 16:44:13;;;;;;;14.63;13.20;;;4.70;99.90;;;;;;5010241;28;20496;-57
2021/12/05 16:46:51;;;;;;;14.07;12.65;;;4.70;99.90;;;;;;5007535;28;20404;-57
2021/12/05 16:49:21;;;;;;;17.20;13.35;;;4.70;99.90;;;;;;5008478;28;20088;-57
2021/12/05 16:51:57;;;;;;;16.80;14.93;;;4.60;99.90;;;;;;5011794;28;20045;-57
2021/12/05 16:54:32;;;;;;;16.45;14.68;;;4.70;99.90;;;;;;5007492;28;20034;-55
2021/12/05 16:57:01;;;;;;;16.63;14.68;;;4.60;99.90;;;;;;5007708;28;20134;-57
2021/12/05 16:59:32;;;;;;;16.13;14.48;;;4.60;99.90;;;;;;5011353;28;20053;-57
2021/12/05 17:02:12;;;;;;;17.63;15.32;;;4.70;99.90;;;;;;5011751;28;20080;-55
2021/12/05 17:05:00;;;;;;;16.60;14.75;;;4.60;99.90;;;;;;5011913;28;20038;-57
2021/12/05 17:07:36;;;;;;;14.27;12.85;;;4.60;99.90;;;;;;5011227;28;20042;-55
2021/12/05 17:10:18;;;;;;;16.23;13.35;;;4.60;99.90;;;;;;5011038;28;20046;-57
2021/12/05 17:12:45;;;;;;;14.48;13.05;;;4.60;99.90;;;;;;5011677;28;20045;-57
2021/12/05 17:15:17;;;;;;;13.85;12.45;;;4.70;99.90;;;;;;5009823;28;20053;-56
2021/12/05 17:17:45;;;;;;;15.00;13.43;;;4.60;99.90;;;;;;5006501;28;20042;-56
2021/12/05 17:20:17;;;;;;;15.55;13.95;;;4.60;99.90;;;;;;5005461;28;20041;-57
2021/12/05 17:23:10;;;;;;;16.77;15.07;;;4.60;99.90;;;;;;5008340;28;20046;-57
2021/12/05 17:25:45;;;;;;;16.38;14.52;;;4.60;99.90;;;;;;5007025;28;20045;-57
2021/12/05 17:28:36;;;;;;;16.17;13.90;;;4.60;99.90;;;;;;4975983;28;20113;-57
2021/12/05 17:31:06;;;;;;;17.58;15.77;;;4.60;99.90;;;;;;4999067;28;20084;-57
2021/12/05 17:33:37;;;;;;;19.30;16.38;;;4.70;99.90;;;;;;5009973;28;20042;-56
2021/12/05 17:36:14;;;;;;;17.80;15.90;;;4.70;99.90;;;;;;5013095;28;20111;-57
2021/12/05 17:38:40;;;;;;;20.37;16.37;;;4.60;99.90;;;;;;5014843;28;20049;-57
2021/12/05 17:41:06;;;;;;;18.58;15.30;;;4.60;99.90;;;;;;5014179;28;20046;-57
2021/12/05 17:43:31;;;;;;;19.55;17.25;;;4.60;99.90;;;;;;5013740;28;20037;-55
2021/12/05 17:45:57;;;;;;;20.08;16.95;;;4.60;99.90;;;;;;5012116;28;20066;-58
2021/12/05 17:48:23;;;;;;;19.02;17.00;;;4.60;99.90;;;;;;5013119;28;20058;-57
2021/12/05 17:50:52;;;;;;;22.17;18.45;;;4.60;99.90;;;;;;5010340;28;20472;-56
2021/12/05 17:53:20;;;;;;;21.33;18.45;;;4.60;99.90;;;;;;5013832;28;20549;-56
2021/12/05 17:55:48;;;;;;;23.63;18.02;;;4.60;99.90;;;;;;5014329;28;20061;-56
2021/12/05 17:58:33;;;;;;;21.65;17.67;;;4.60;99.90;;;;;;5013656;28;20168;-58
2021/12/05 18:02:41;;;;;;;22.40;17.45;;;4.60;99.90;;;;;;5012235;28;20045;-57
2021/12/05 18:03:45;;;;;;;24.65;18.25;;;4.60;99.90;;;;;;5010650;28;20107;-57
2021/12/05 18:06:11;;;;;;;24.38;18.63;;;4.60;99.90;;;;;;5010112;28;20125;-57
2021/12/05 18:08:37;;;;;;;21.13;18.45;;;4.60;99.90;;;;;;5013358;28;20053;-57
2021/12/05 18:11:10;;;;;;;22.83;18.15;;;4.60;99.90;;;;;;5014016;28;20045;-57
2021/12/05 18:13:37;;;;;;;22.30;17.88;;;4.60;99.90;;;;;;5012933;28;20188;-56